createdAt,value
2022-09-14T00:00:09.458Z,100205.91
2022-09-14T00:02:11.102Z,100210.28
2022-09-14T00:04:16.912Z,100220.34
2022-09-14T00:06:19.035Z,100209.63
2022-09-14T00:08:20.602Z,100209.03
2022-09-14T00:10:22.160Z,100210.72
2022-09-14T00:12:23.707Z,100204.38
2022-09-14T00:14:25.289Z,100210.47
2022-09-14T00:16:29.092Z,100202.44
2022-09-14T00:18:30.964Z,100195.63
2022-09-14T00:20:33.926Z,100201.59
2022-09-14T00:22:35.470Z,100196.72
2022-09-14T00:24:37.164Z,100200.97
2022-09-14T00:26:38.753Z,100196.56
2022-09-14T00:28:42.681Z,100196.56
2022-09-14T00:30:44.258Z,100184.34
2022-09-14T00:32:45.802Z,100187.31
2022-09-14T00:34:47.464Z,100186.81
2022-09-14T00:36:51.701Z,100186.31
2022-09-14T00:38:54.733Z,100183.13
2022-09-14T00:40:57.455Z,100179.72
2022-09-14T00:42:58.980Z,100178.00
2022-09-14T00:45:12.813Z,100176.53
2022-09-14T00:47:16.276Z,100176.78
2022-09-14T00:49:22.325Z,100171.91
2022-09-14T00:51:24.667Z,100166.31
2022-09-14T00:53:27.679Z,100164.59
2022-09-14T00:55:29.343Z,100162.28
2022-09-14T00:57:35.897Z,100160.44
2022-09-14T00:59:39.352Z,100159.72
2022-09-14T01:01:41.228Z,100150.09
2022-09-14T01:03:42.825Z,100159.94
2022-09-14T01:06:06.586Z,100158.38
2022-09-14T01:08:18.620Z,100156.78
2022-09-14T01:10:32.187Z,100163.81
2022-09-14T01:12:42.673Z,100157.75
2022-09-14T01:14:50.956Z,100164.06
2022-09-14T01:17:00.702Z,100160.66
2022-09-14T01:19:06.324Z,100157.25
2022-09-14T01:21:12.457Z,100159.78
2022-09-14T01:23:18.453Z,100156.03
2022-09-14T01:25:50.645Z,100155.31
2022-09-14T01:27:56.139Z,100161.63
2022-09-14T01:30:08.217Z,100153.59
2022-09-14T01:32:15.836Z,100160.16
2022-09-14T01:34:22.890Z,100154.28
2022-09-14T01:36:28.867Z,100159.19
2022-09-14T01:38:34.891Z,100160.88
2022-09-14T01:40:39.800Z,100152.50
2022-09-14T01:42:45.707Z,100145.69
2022-09-14T01:44:52.670Z,100146.78
2022-09-14T01:46:57.150Z,100152.13
2022-09-14T01:49:04.035Z,100155.72
2022-09-14T01:51:13.279Z,100159.50
2022-09-14T01:53:20.544Z,100151.56
2022-09-14T01:55:27.119Z,100159.09
2022-09-14T01:57:33.805Z,100162.00
2022-09-14T01:59:39.321Z,100156.56
2022-09-14T02:01:50.192Z,100148.03
2022-09-14T02:03:56.381Z,100149.53
2022-09-14T02:06:05.144Z,100156.19
2022-09-14T02:08:06.857Z,100151.28
2022-09-14T02:10:12.333Z,100145.72
2022-09-14T02:12:14.474Z,100154.25
2022-09-14T02:14:16.229Z,100151.34
2022-09-14T02:16:19.067Z,100153.19
2022-09-14T02:18:22.316Z,100149.22
2022-09-14T02:20:30.008Z,100146.31
2022-09-14T02:22:31.627Z,100147.56
2022-09-14T02:24:33.300Z,100153.38
2022-09-14T02:26:35.721Z,100147.53
2022-09-14T02:28:37.377Z,100146.34
2022-09-14T02:30:48.029Z,100145.72
2022-09-14T02:33:01.306Z,100144.47
2022-09-14T02:35:14.842Z,100146.19
2022-09-14T02:37:19.572Z,100144.00
2022-09-14T02:39:27.407Z,100138.91
2022-09-14T02:41:37.856Z,100136.97
2022-09-14T02:43:46.572Z,100130.19
2022-09-14T02:45:55.795Z,100130.88
2022-09-14T02:48:04.582Z,100131.44
2022-09-14T02:50:15.355Z,100139.56
2022-09-14T02:52:22.332Z,100135.19
2022-09-14T02:54:30.631Z,100131.03
2022-09-14T02:56:33.348Z,100127.84
2022-09-14T02:58:36.454Z,100134.03
2022-09-14T03:00:41.048Z,100130.31
2022-09-14T03:02:42.624Z,100134.22
2022-09-14T03:04:44.301Z,100125.69
2022-09-14T03:06:47.269Z,100127.41
2022-09-14T03:08:49.595Z,100128.38
2022-09-14T03:10:51.172Z,100126.16
2022-09-14T03:12:52.796Z,100129.34
2022-09-14T03:14:54.333Z,100132.13
2022-09-14T03:16:55.855Z,100132.75
2022-09-14T03:18:57.553Z,100137.28
2022-09-14T03:21:02.783Z,100133.19
2022-09-14T03:23:06.690Z,100137.25
2022-09-14T03:25:08.842Z,100136.16
2022-09-14T03:27:10.402Z,100139.78
2022-09-14T03:29:11.962Z,100131.72
2022-09-14T03:31:13.634Z,100128.69
2022-09-14T03:33:15.179Z,100126.38
2022-09-14T03:35:17.475Z,100123.69
2022-09-14T03:37:19.017Z,100122.50
2022-09-14T03:39:21.824Z,100117.16
2022-09-14T03:41:24.115Z,100107.63
2022-09-14T03:43:25.636Z,100120.13
2022-09-14T03:45:27.222Z,100110.91
2022-09-14T03:47:28.680Z,100116.50
2022-09-14T03:49:30.327Z,100120.34
2022-09-14T03:51:33.607Z,100124.22
2022-09-14T03:53:35.289Z,100122.28
2022-09-14T03:55:40.005Z,100119.09
2022-09-14T03:57:41.489Z,100117.72
2022-09-14T03:59:43.851Z,100112.50
2022-09-14T04:01:45.635Z,100114.19
2022-09-14T04:03:47.834Z,100111.53
2022-09-14T04:05:55.230Z,100115.16
2022-09-14T04:07:56.813Z,100117.84
2022-09-14T04:09:58.253Z,100119.53
2022-09-14T04:12:01.110Z,100116.13
2022-09-14T04:14:04.125Z,100125.09
2022-09-14T04:16:05.770Z,100128.53
2022-09-14T04:18:07.291Z,100136.47
2022-09-14T04:20:09.225Z,100124.25
2022-09-14T04:22:10.690Z,100116.47
2022-09-14T04:24:15.945Z,100118.06
2022-09-14T04:26:19.954Z,100108.66
2022-09-14T04:28:23.579Z,100110.38
2022-09-14T04:30:25.049Z,100107.81
2022-09-14T04:32:29.645Z,100111.97
2022-09-14T04:34:35.085Z,100116.56
2022-09-14T04:36:36.558Z,100108.44
2022-09-14T04:38:39.137Z,100116.78
2022-09-14T04:40:41.211Z,100118.28
2022-09-14T04:42:42.743Z,100114.88
2022-09-14T04:44:45.579Z,100118.06
2022-09-14T04:46:47.309Z,100110.38
2022-09-14T04:48:49.289Z,100107.47
2022-09-14T04:50:51.004Z,100109.06
2022-09-14T04:52:52.552Z,100102.03
2022-09-14T04:54:54.053Z,100098.41
2022-09-14T04:56:55.527Z,100096.69
2022-09-14T04:58:58.689Z,100102.66
2022-09-14T05:01:03.520Z,100099.44
2022-09-14T05:03:05.324Z,100105.44
2022-09-14T05:05:08.175Z,100094.75
2022-09-14T05:07:09.685Z,100094.31
2022-09-14T05:09:13.474Z,100083.06
2022-09-14T05:11:17.262Z,100088.78
2022-09-14T05:13:18.705Z,100092.44
2022-09-14T05:15:20.163Z,100088.69
2022-09-14T05:17:22.976Z,100078.78
2022-09-14T05:19:24.682Z,100081.56
2022-09-14T05:21:26.157Z,100101.75
2022-09-14T05:23:27.623Z,100102.56
2022-09-14T05:25:29.053Z,100098.56
2022-09-14T05:27:30.698Z,100107.63
2022-09-14T05:29:32.151Z,100092.00
2022-09-14T05:31:33.701Z,100094.56
2022-09-14T05:33:37.049Z,100099.16
2022-09-14T05:35:38.524Z,100095.66
2022-09-14T05:37:40.070Z,100110.09
2022-09-14T05:39:41.535Z,100105.59
2022-09-14T05:41:43.085Z,100103.09
2022-09-14T05:43:44.831Z,100099.91
2022-09-14T05:45:46.318Z,100096.16
2022-09-14T05:47:47.765Z,100100.06
2022-09-14T05:49:50.531Z,100103.03
2022-09-14T05:51:52.004Z,100102.63
2022-09-14T05:53:55.284Z,100096.09
2022-09-14T05:56:00.316Z,100098.47
2022-09-14T05:58:01.839Z,100096.31
2022-09-14T06:00:04.489Z,100093.44
2022-09-14T06:02:06.139Z,100087.22
2022-09-14T06:04:10.016Z,100080.34
2022-09-14T06:06:16.451Z,100082.19
2022-09-14T06:08:17.888Z,100075.50
2022-09-14T06:10:20.581Z,100079.66
2022-09-14T06:12:22.041Z,100079.66
2022-09-14T06:14:23.527Z,100075.91
2022-09-14T06:16:26.958Z,100070.94
2022-09-14T06:18:30.341Z,100071.41
2022-09-14T06:20:31.857Z,100071.91
2022-09-14T06:22:34.889Z,100074.47
2022-09-14T06:24:36.351Z,100069.22
2022-09-14T06:26:37.936Z,100068.25
2022-09-14T06:28:39.977Z,100066.09
2022-09-14T06:30:43.057Z,100074.63
2022-09-14T06:32:44.554Z,100068.53
2022-09-14T06:34:46.270Z,100066.59
2022-09-14T06:36:47.716Z,100063.41
2022-09-14T06:38:50.711Z,100061.34
2022-09-14T06:40:53.583Z,100055.03
2022-09-14T06:42:55.079Z,100064.63
2022-09-14T06:44:56.605Z,100056.06
2022-09-14T06:46:58.126Z,100064.22
2022-09-14T06:49:01.998Z,100071.53
2022-09-14T06:51:12.117Z,100072.63
2022-09-14T06:53:13.623Z,100077.28
2022-09-14T06:55:16.570Z,100074.28
2022-09-14T06:57:18.036Z,100065.97
2022-09-14T06:59:19.684Z,100063.34
2022-09-14T07:01:21.875Z,100068.94
2022-09-14T07:03:23.473Z,100072.22
2022-09-14T07:05:25.003Z,100067.50
2022-09-14T07:07:26.458Z,100076.53
2022-09-14T07:09:28.002Z,100080.19
2022-09-14T07:11:31.722Z,100076.00
2022-09-14T07:13:33.866Z,100079.31
2022-09-14T07:15:35.317Z,100074.16
2022-09-14T07:17:36.840Z,100078.69
2022-09-14T07:19:38.282Z,100077.97
2022-09-14T07:21:40.376Z,100079.66
2022-09-14T07:23:43.528Z,100082.13
2022-09-14T07:25:45.174Z,100074.28
2022-09-14T07:27:48.032Z,100077.25
2022-09-14T07:29:49.673Z,100069.38
2022-09-14T07:31:52.647Z,100071.94
2022-09-14T07:33:55.524Z,100067.78
2022-09-14T07:36:05.315Z,100070.00
2022-09-14T07:38:06.818Z,100061.72
2022-09-14T07:40:09.225Z,100067.16
2022-09-14T07:42:10.811Z,100068.44
2022-09-14T07:44:17.326Z,100063.94
2022-09-14T07:46:19.826Z,100071.28
2022-09-14T07:48:21.850Z,100068.69
2022-09-14T07:50:23.355Z,100063.41
2022-09-14T07:52:24.970Z,100074.09
2022-09-14T07:54:26.702Z,100074.72
2022-09-14T07:56:28.492Z,100064.53
2022-09-14T07:58:30.021Z,100068.50
2022-09-14T08:00:32.860Z,100065.41
2022-09-14T08:02:34.592Z,100064.84
2022-09-14T08:04:36.564Z,100069.50
2022-09-14T08:06:38.070Z,100074.47
2022-09-14T08:08:41.215Z,100075.91
2022-09-14T08:10:42.762Z,100069.94
2022-09-14T08:12:44.250Z,100063.31
2022-09-14T08:14:45.756Z,100066.53
2022-09-14T08:16:48.598Z,100065.69
2022-09-14T08:18:54.311Z,100065.41
2022-09-14T08:20:56.388Z,100061.00
2022-09-14T08:22:59.068Z,100068.94
2022-09-14T08:25:00.701Z,100071.78
2022-09-14T08:27:02.188Z,100066.25
2022-09-14T08:29:04.169Z,100070.47
2022-09-14T08:31:07.398Z,100065.78
2022-09-14T08:33:10.221Z,100068.56
2022-09-14T08:35:11.679Z,100066.59
2022-09-14T08:37:13.212Z,100061.84
2022-09-14T08:39:16.024Z,100070.03
2022-09-14T08:41:26.514Z,100057.75
2022-09-14T08:43:28.230Z,100053.91
2022-09-14T08:45:29.961Z,100058.56
2022-09-14T08:47:33.727Z,100053.41
2022-09-14T08:49:48.063Z,100051.03
2022-09-14T08:51:50.345Z,100056.03
2022-09-14T08:53:52.503Z,100067.53
2022-09-14T08:55:59.597Z,100055.66
2022-09-14T08:58:07.885Z,100066.00
2022-09-14T09:00:12.779Z,100069.50
2022-09-14T09:02:45.233Z,100050.97
2022-09-14T09:04:53.793Z,100049.81
2022-09-14T09:07:02.153Z,100045.94
2022-09-14T09:09:13.499Z,100048.03
2022-09-14T09:11:19.561Z,100042.94
2022-09-14T09:13:26.473Z,100038.47
2022-09-14T09:15:31.211Z,100041.47
2022-09-14T09:17:36.603Z,100044.47
2022-09-14T09:19:45.362Z,100043.69
2022-09-14T09:21:49.035Z,100043.91
2022-09-14T09:23:50.665Z,100041.84
2022-09-14T09:25:58.673Z,100044.44
2022-09-14T09:28:03.081Z,100040.16
2022-09-14T09:30:05.632Z,100042.19
2022-09-14T09:32:12.590Z,100040.19
2022-09-14T09:34:16.934Z,100040.28
2022-09-14T09:36:18.681Z,100037.34
2022-09-14T09:38:23.637Z,100033.34
2022-09-14T09:40:34.119Z,100034.50
2022-09-14T09:42:35.686Z,100034.03
2022-09-14T09:44:56.037Z,100035.44
2022-09-14T09:47:02.146Z,100032.75
2022-09-14T09:49:14.219Z,100024.72
2022-09-14T09:51:22.184Z,100025.34
2022-09-14T09:53:27.663Z,100034.44
2022-09-14T09:55:37.194Z,100032.22
2022-09-14T09:57:38.696Z,100018.59
2022-09-14T09:59:42.480Z,100023.63
2022-09-14T10:01:44.207Z,100026.78
2022-09-14T10:04:00.692Z,100024.25
2022-09-14T10:06:05.896Z,100023.94
2022-09-14T10:08:14.933Z,100023.94
2022-09-14T10:10:20.078Z,100014.19
2022-09-14T10:12:24.590Z,100008.72
2022-09-14T10:14:29.769Z,100013.56
2022-09-14T10:16:37.017Z,100013.81
2022-09-14T10:18:48.786Z,100011.63
2022-09-14T10:21:07.379Z,100015.03
2022-09-14T10:23:23.289Z,100013.72
2022-09-14T10:25:26.413Z,100007.88
2022-09-14T10:27:37.745Z,100009.94
2022-09-14T10:29:42.262Z,100014.03
2022-09-14T10:31:45.403Z,100015.09
2022-09-14T10:33:48.105Z,100012.63
2022-09-14T10:35:56.882Z,100009.25
2022-09-14T10:38:14.273Z,99997.75
2022-09-14T10:40:19.611Z,100000.38
2022-09-14T10:42:30.045Z,99996.06
2022-09-14T10:44:45.852Z,99997.03
2022-09-14T10:47:04.567Z,99993.13
2022-09-14T10:49:21.232Z,99992.09
2022-09-14T10:51:33.801Z,99993.91
2022-09-14T10:53:48.913Z,99993.13
2022-09-14T10:55:57.507Z,99993.22
2022-09-14T10:58:17.241Z,99992.38
2022-09-14T11:00:21.536Z,99999.91
2022-09-14T11:03:04.437Z,99999.19
2022-09-14T11:05:14.042Z,100003.06
2022-09-14T11:07:24.196Z,99998.66
2022-09-14T11:09:29.997Z,99999.03
2022-09-14T11:11:44.151Z,99997.38
2022-09-14T11:13:58.925Z,99988.31
2022-09-14T11:16:11.893Z,99995.91
2022-09-14T11:18:24.256Z,99993.53
2022-09-14T11:20:37.458Z,99994.47
2022-09-14T11:22:50.436Z,99987.00
2022-09-14T11:24:56.218Z,99992.03
2022-09-14T11:27:02.850Z,100001.44
2022-09-14T11:29:16.386Z,99986.34
2022-09-14T11:31:23.465Z,99990.03
2022-09-14T11:33:31.344Z,99996.81
2022-09-14T11:35:38.709Z,99989.72
2022-09-14T11:37:45.343Z,99985.41
2022-09-14T11:39:54.691Z,99999.75
2022-09-14T11:42:02.573Z,99999.66
2022-09-14T11:44:14.605Z,99997.34
2022-09-14T11:46:20.519Z,100004.38
2022-09-14T11:48:44.030Z,99993.84
2022-09-14T11:50:47.503Z,99981.69
2022-09-14T11:52:58.907Z,99977.47
2022-09-14T11:55:01.986Z,99981.00
2022-09-14T11:57:04.105Z,99974.75
2022-09-14T11:59:07.403Z,99971.72
2022-09-14T12:01:26.807Z,99956.00
2022-09-14T12:04:06.063Z,99959.38
2022-09-14T12:06:41.072Z,99959.97
2022-09-14T12:08:42.551Z,99957.88
2022-09-14T12:11:21.660Z,99960.91
2022-09-14T12:13:23.230Z,99968.94
2022-09-14T12:15:36.343Z,99965.81
2022-09-14T12:17:40.485Z,99973.72
2022-09-14T12:19:44.009Z,99968.97
2022-09-14T12:21:45.559Z,99980.63
2022-09-14T12:23:48.143Z,99979.22
2022-09-14T12:26:00.086Z,99964.59
2022-09-14T12:28:01.726Z,99955.22
2022-09-14T12:30:23.798Z,99959.84
2022-09-14T12:32:43.583Z,99973.25
2022-09-14T12:34:45.191Z,99972.59
2022-09-14T12:37:27.359Z,99970.63
2022-09-14T12:39:30.544Z,99965.28
2022-09-14T12:41:58.773Z,99949.16
2022-09-14T12:44:00.246Z,99951.31
2022-09-14T12:46:04.357Z,99953.78
2022-09-14T12:48:08.674Z,99956.34
2022-09-14T12:50:16.403Z,99945.50
2022-09-14T12:52:33.500Z,99950.63
2022-09-14T12:54:49.212Z,99948.69
2022-09-14T12:57:02.217Z,99944.34
2022-09-14T12:59:10.607Z,99942.81
2022-09-14T13:01:26.486Z,99939.94
2022-09-14T13:03:54.347Z,99930.56
2022-09-14T13:05:56.396Z,99935.84
2022-09-14T13:07:58.083Z,99921.44
2022-09-14T13:10:01.503Z,99924.41
2022-09-14T13:12:05.736Z,99927.56
2022-09-14T13:14:16.193Z,99927.25
2022-09-14T13:16:22.355Z,99901.59
2022-09-14T13:18:29.961Z,99896.41
2022-09-14T13:20:33.572Z,99886.94
2022-09-14T13:22:35.075Z,99892.69
2022-09-14T13:24:42.765Z,99895.19
2022-09-14T13:26:44.270Z,99900.47
2022-09-14T13:28:47.992Z,99899.06
2022-09-14T13:30:54.556Z,99890.84
2022-09-14T13:32:57.549Z,99896.25
2022-09-14T13:34:59.370Z,99890.81
2022-09-14T13:37:04.024Z,99890.47
2022-09-14T13:39:15.660Z,99892.13
2022-09-14T13:41:19.521Z,99893.22
2022-09-14T13:43:22.561Z,99889.44
2022-09-14T13:45:24.703Z,99881.94
2022-09-14T13:47:27.139Z,99887.28
2022-09-14T13:49:29.052Z,99890.91
2022-09-14T13:51:30.655Z,99890.81
2022-09-14T13:53:46.129Z,99889.81
2022-09-14T13:55:47.799Z,99886.47
2022-09-14T13:58:06.910Z,99888.22
2022-09-14T14:00:20.010Z,99881.69
2022-09-14T14:02:21.560Z,99877.44
2022-09-14T14:04:27.081Z,99877.31
2022-09-14T14:06:30.932Z,99874.47
2022-09-14T14:08:36.254Z,99875.00
2022-09-14T14:10:45.182Z,99867.84
2022-09-14T14:12:50.183Z,99862.78
2022-09-14T14:14:56.954Z,99859.00
2022-09-14T14:17:32.775Z,99864.16
2022-09-14T14:19:34.286Z,99856.75
2022-09-14T14:21:35.798Z,99863.31
2022-09-14T14:23:51.067Z,99850.97
2022-09-14T14:26:09.721Z,99861.56
2022-09-14T14:28:17.672Z,99860.38
2022-09-14T14:30:21.294Z,99856.31
2022-09-14T14:32:22.982Z,99849.38
2022-09-14T14:34:26.628Z,99848.75
2022-09-14T14:36:28.093Z,99852.56
2022-09-14T14:38:29.632Z,99846.00
2022-09-14T14:40:32.319Z,99845.47
2022-09-14T14:42:35.285Z,99852.13
2022-09-14T14:44:36.926Z,99844.88
2022-09-14T14:46:38.576Z,99859.59
2022-09-14T14:48:40.478Z,99856.44
2022-09-14T14:50:41.991Z,99848.81
2022-09-14T14:52:43.564Z,99856.09
2022-09-14T14:54:45.110Z,99858.78
2022-09-14T14:56:48.798Z,99850.84
2022-09-14T14:58:51.715Z,99860.56
2022-09-14T15:00:53.631Z,99856.88
2022-09-14T15:02:55.219Z,99848.63
2022-09-14T15:04:56.700Z,99846.09
2022-09-14T15:06:58.451Z,99841.84
2022-09-14T15:08:59.927Z,99843.31
2022-09-14T15:11:01.488Z,99839.94
2022-09-14T15:13:03.144Z,99843.94
2022-09-14T15:15:11.788Z,99839.63
2022-09-14T15:17:13.301Z,99837.09
2022-09-14T15:19:14.918Z,99834.47
2022-09-14T15:21:16.400Z,99836.16
2022-09-14T15:23:17.864Z,99832.53
2022-09-14T15:25:21.254Z,99830.91
2022-09-14T15:27:22.789Z,99832.75
2022-09-14T15:29:24.247Z,99830.91
2022-09-14T15:31:27.221Z,99832.84
2022-09-14T15:33:28.767Z,99826.53
2022-09-14T15:35:30.329Z,99827.75
2022-09-14T15:37:31.911Z,99824.59
2022-09-14T15:39:34.271Z,99824.06
2022-09-14T15:41:35.787Z,99826.59
2022-09-14T15:43:37.282Z,99826.06
2022-09-14T15:45:39.037Z,99817.81
2022-09-14T15:47:43.332Z,99826.75
2022-09-14T15:49:44.858Z,99822.06
2022-09-14T15:51:48.025Z,99824.75
2022-09-14T15:53:49.748Z,99820.66
2022-09-14T15:55:51.351Z,99825.28
2022-09-14T15:57:52.870Z,99825.97
2022-09-14T15:59:54.557Z,99828.66
2022-09-14T16:01:56.224Z,99828.34
2022-09-14T16:04:00.558Z,99828.06
2022-09-14T16:06:02.270Z,99831.75
2022-09-14T16:08:03.753Z,99832.59
2022-09-14T16:10:06.366Z,99833.75
2022-09-14T16:12:08.995Z,99837.44
2022-09-14T16:14:11.035Z,99832.66
2022-09-14T16:16:14.718Z,99838.34
2022-09-14T16:18:16.356Z,99838.63
2022-09-14T16:20:19.947Z,99835.69
2022-09-14T16:22:21.540Z,99830.13
2022-09-14T16:24:24.301Z,99819.06
2022-09-14T16:26:28.111Z,99817.97
2022-09-14T16:28:29.759Z,99818.84
2022-09-14T16:30:33.072Z,99819.16
2022-09-14T16:32:34.589Z,99820.03
2022-09-14T16:34:36.320Z,99828.72
2022-09-14T16:36:41.691Z,99829.72
2022-09-14T16:38:43.515Z,99822.94
2022-09-14T16:40:44.983Z,99818.94
2022-09-14T16:42:46.607Z,99826.63
2022-09-14T16:44:48.205Z,99835.28
2022-09-14T16:46:50.636Z,99833.75
2022-09-14T16:48:52.826Z,99828.81
2022-09-14T16:50:54.675Z,99827.81
2022-09-14T16:52:57.534Z,99820.31
2022-09-14T16:54:59.000Z,99819.31
2022-09-14T16:57:00.802Z,99819.31
2022-09-14T16:59:03.110Z,99823.13
2022-09-14T17:01:06.302Z,99813.41
2022-09-14T17:03:07.890Z,99811.56
2022-09-14T17:05:09.651Z,99809.16
2022-09-14T17:07:11.259Z,99817.53
2022-09-14T17:09:16.522Z,99814.84
2022-09-14T17:11:18.065Z,99814.25
2022-09-14T17:13:19.534Z,99812.00
2022-09-14T17:15:21.034Z,99813.97
2022-09-14T17:17:22.550Z,99808.47
2022-09-14T17:19:24.586Z,99812.56
2022-09-14T17:21:27.946Z,99807.50
2022-09-14T17:23:29.613Z,99802.13
2022-09-14T17:25:32.525Z,99807.50
2022-09-14T17:27:34.143Z,99791.50
2022-09-14T17:29:35.633Z,99797.31
2022-09-14T17:31:39.112Z,99792.22
2022-09-14T17:33:40.852Z,99800.31
2022-09-14T17:35:46.392Z,99794.50
2022-09-14T17:37:47.952Z,99801.59
2022-09-14T17:39:49.599Z,99793.38
2022-09-14T17:41:52.427Z,99797.06
2022-09-14T17:43:55.272Z,99796.91
2022-09-14T17:45:58.041Z,99794.81
2022-09-14T17:47:59.662Z,99795.78
2022-09-14T17:50:01.146Z,99804.84
2022-09-14T17:52:02.632Z,99802.44
2022-09-14T17:54:04.447Z,99800.06
2022-09-14T17:56:08.557Z,99802.88
2022-09-14T17:58:11.396Z,99803.03
2022-09-14T18:00:13.963Z,99797.38
2022-09-14T18:02:15.463Z,99799.06
2022-09-14T18:04:17.405Z,99795.38
2022-09-14T18:06:19.850Z,99788.72
2022-09-14T18:08:21.415Z,99779.53
2022-09-14T18:10:23.258Z,99781.09
2022-09-14T18:12:25.071Z,99783.06
2022-09-14T18:14:28.045Z,99778.41
2022-09-14T18:16:30.309Z,99781.25
2022-09-14T18:18:31.898Z,99780.38
2022-09-14T18:20:33.340Z,99767.09
2022-09-14T18:22:35.090Z,99767.78
2022-09-14T18:24:36.588Z,99760.03
2022-09-14T18:26:38.103Z,99768.50
2022-09-14T18:28:39.809Z,99775.00
2022-09-14T18:30:43.772Z,99769.47
2022-09-14T18:32:45.474Z,99761.41
2022-09-14T18:34:46.966Z,99760.56
2022-09-14T18:36:50.877Z,99760.56
2022-09-14T18:38:52.453Z,99766.25
2022-09-14T18:40:54.002Z,99761.16
2022-09-14T18:42:55.536Z,99764.53
2022-09-14T18:44:57.032Z,99767.66
2022-09-14T18:47:00.061Z,99778.97
2022-09-14T18:49:01.935Z,99782.38
2022-09-14T18:51:04.469Z,99779.38
2022-09-14T18:53:06.253Z,99785.75
2022-09-14T18:55:08.328Z,99776.56
2022-09-14T18:57:09.872Z,99779.38
2022-09-14T18:59:14.017Z,99771.31
2022-09-14T19:01:15.732Z,99772.47
2022-09-14T19:03:18.600Z,99768.22
2022-09-14T19:05:20.596Z,99767.81
2022-09-14T19:07:22.320Z,99765.38
2022-09-14T19:09:23.959Z,99775.44
2022-09-14T19:11:27.113Z,99772.91
2022-09-14T19:13:28.640Z,99762.00
2022-09-14T19:15:32.674Z,99771.19
2022-09-14T19:17:34.538Z,99769.09
2022-09-14T19:19:37.417Z,99772.47
2022-09-14T19:21:38.930Z,99763.41
2022-09-14T19:23:41.045Z,99768.94
2022-09-14T19:25:42.706Z,99767.53
2022-09-14T19:27:44.227Z,99765.81
2022-09-14T19:29:45.709Z,99768.09
2022-09-14T19:31:47.683Z,99777.00
2022-09-14T19:33:49.942Z,99775.31
2022-09-14T19:35:53.027Z,99781.53
2022-09-14T19:37:54.543Z,99777.28
2022-09-14T19:39:56.275Z,99769.66
2022-09-14T19:41:57.979Z,99776.16
2022-09-14T19:47:37.961Z,99779.41
2022-09-14T19:49:39.680Z,99780.56
2022-09-14T19:51:43.044Z,99781.53
2022-09-14T19:53:47.408Z,99779.84
2022-09-14T19:55:48.895Z,99780.41
2022-09-14T19:57:50.639Z,99779.00
2022-09-14T19:59:52.230Z,99785.47
2022-09-14T20:01:53.876Z,99783.78
2022-09-14T20:03:56.182Z,99774.19
2022-09-14T20:06:01.304Z,99782.63
2022-09-14T20:08:04.211Z,99782.94
2022-09-14T20:10:06.919Z,99771.34
2022-09-14T20:12:08.439Z,99778.13
2022-09-14T20:14:11.733Z,99773.19
2022-09-14T20:16:15.423Z,99773.88
2022-09-14T20:18:17.007Z,99769.50
2022-09-14T20:20:18.487Z,99777.84
2022-09-14T20:22:19.963Z,99788.03
2022-09-14T20:24:24.289Z,99775.88
2022-09-14T20:26:27.190Z,99770.22
2022-09-14T20:28:28.749Z,99783.94
2022-09-14T20:30:30.269Z,99783.50
2022-09-14T20:32:31.753Z,99769.06
2022-09-14T20:34:33.492Z,99775.03
2022-09-14T20:36:35.005Z,99776.56
2022-09-14T20:38:37.304Z,99772.19
2022-09-14T20:40:40.223Z,99778.25
2022-09-14T20:42:41.898Z,99780.81
2022-09-14T20:44:43.434Z,99778.69
2022-09-14T20:46:45.241Z,99784.03
2022-09-14T20:48:48.103Z,99785.03
2022-09-14T20:50:53.095Z,99780.94
2022-09-14T20:52:54.620Z,99786.56
2022-09-14T20:54:56.115Z,99783.03
2022-09-14T20:57:03.507Z,99790.47
2022-09-14T20:59:07.762Z,99780.59
2022-09-14T21:01:11.078Z,99787.88
2022-09-14T21:03:13.559Z,99777.44
2022-09-14T21:05:15.407Z,99783.34
2022-09-14T21:07:16.948Z,99780.25
2022-09-14T21:09:19.554Z,99777.16
2022-09-14T21:11:23.160Z,99783.06
2022-09-14T21:13:26.035Z,99773.06
2022-09-14T21:15:27.592Z,99769.25
2022-09-14T21:17:29.139Z,99763.03
2022-09-14T21:19:30.629Z,99765.28
2022-09-14T21:21:32.518Z,99771.06
2022-09-14T21:23:34.509Z,99773.59
2022-09-14T21:25:35.997Z,99776.00
2022-09-14T21:27:37.458Z,99776.84
2022-09-14T21:29:40.303Z,99777.41
2022-09-14T21:31:42.625Z,99770.03
2022-09-14T21:33:46.114Z,99780.78
2022-09-14T21:35:47.580Z,99789.94
2022-09-14T21:37:50.424Z,99782.75
2022-09-14T21:39:53.206Z,99769.47
2022-09-14T21:41:59.060Z,99769.19
2022-09-14T21:44:01.507Z,99775.97
2022-09-14T21:46:04.658Z,99779.03
2022-09-14T21:48:06.144Z,99779.19
2022-09-14T21:50:08.497Z,99789.63
2022-09-14T21:52:09.961Z,99794.28
2022-09-14T21:54:12.800Z,99795.13
2022-09-14T21:56:15.467Z,99788.47
2022-09-14T21:58:16.943Z,99785.94
2022-09-14T22:00:18.988Z,99782.72
2022-09-14T22:02:21.912Z,99777.63
2022-09-14T22:04:24.965Z,99780.97
2022-09-14T22:06:29.143Z,99779.81
2022-09-14T22:08:31.893Z,99783.34
2022-09-14T22:10:34.525Z,99773.03
2022-09-14T22:12:36.047Z,99776.44
2022-09-14T22:14:37.518Z,99774.47
2022-09-14T22:16:40.242Z,99776.97
2022-09-14T22:18:49.015Z,99773.03
2022-09-14T22:20:55.889Z,99767.75
2022-09-14T22:22:57.366Z,99773.56
2022-09-14T22:24:58.907Z,99777.22
2022-09-14T22:27:00.376Z,99777.75
2022-09-14T22:29:02.209Z,99774.38
2022-09-14T22:31:04.873Z,99766.47
2022-09-14T22:33:06.364Z,99770.94
2022-09-14T22:35:09.425Z,99765.25
2022-09-14T22:37:10.897Z,99774.03
2022-09-14T22:39:13.292Z,99767.31
2022-09-14T22:41:17.897Z,99762.72
2022-09-14T22:43:19.430Z,99761.03
2022-09-14T22:45:20.947Z,99760.19
2022-09-14T22:47:22.985Z,99754.81
2022-09-14T22:49:24.672Z,99772.28
2022-09-14T22:51:28.882Z,99764.41
2022-09-14T22:53:30.940Z,99762.72
2022-09-14T22:55:38.815Z,99764.69
2022-09-14T22:57:40.337Z,99768.63
2022-09-14T22:59:41.836Z,99765.47
2022-09-14T23:01:43.577Z,99768.88
2022-09-14T23:03:45.549Z,99767.19
2022-09-14T23:05:51.892Z,99765.34
2022-09-14T23:07:55.633Z,99766.47
2022-09-14T23:09:57.103Z,99768.28
2022-09-14T23:11:58.746Z,99771.91
2022-09-14T23:14:00.325Z,99776.78
2022-09-14T23:16:02.429Z,99768.75
2022-09-14T23:18:04.344Z,99770.97
2022-09-14T23:20:07.092Z,99767.31
2022-09-14T23:22:08.610Z,99769.28
2022-09-14T23:24:11.468Z,99760.50
2022-09-14T23:26:12.987Z,99754.91
2022-09-14T23:28:14.568Z,99759.06
2022-09-14T23:30:16.294Z,99762.97
2022-09-14T23:32:18.051Z,99761.03
2022-09-14T23:34:19.511Z,99762.97
2022-09-14T23:36:21.522Z,99770.28
2022-09-14T23:38:23.206Z,99760.81
2022-09-14T23:40:26.088Z,99751.69
2022-09-14T23:42:27.595Z,99748.88
2022-09-14T23:44:29.119Z,99751.09
2022-09-14T23:46:30.690Z,99751.81
2022-09-14T23:48:32.318Z,99756.19
2022-09-14T23:50:33.827Z,99754.63
2022-09-14T23:52:35.455Z,99746.00
2022-09-14T23:54:36.919Z,99755.00
2022-09-14T23:56:39.885Z,99757.28
2022-09-14T23:58:42.140Z,99753.06
